Time;durP1;ratioP1;P1;durP2;ratioP2;P2;SDS_P1;SDS_P2;PMS_P1;PMS_P2;Temp;Humidity;BMP_temperature;BMP_pressure;BME280_temperature;BME280_humidity;BME280_pressure;Samples;Min_cycle;Max_cycle;Signal;HPM_P1;HPM_P2
2022/03/29 00:00:51;;;;;;;33.63;18.13;;;7.50;99.90;;;;;;5076043;28;20068;-73
2022/03/29 00:03:17;;;;;;;31.98;18.45;;;7.50;99.90;;;;;;5067230;28;20135;-70
2022/03/29 00:05:43;;;;;;;37.50;21.77;;;7.50;99.90;;;;;;5059319;28;20087;-70
2022/03/29 00:08:09;;;;;;;35.72;20.27;;;7.60;99.90;;;;;;5051091;28;20064;-69
2022/03/29 00:10:35;;;;;;;38.35;21.95;;;7.60;99.90;;;;;;5080089;28;20056;-69
2022/03/29 00:13:00;;;;;;;36.60;20.67;;;7.60;99.90;;;;;;5060132;28;20470;-70
2022/03/29 00:15:28;;;;;;;35.38;20.52;;;7.50;99.90;;;;;;5073846;28;20028;-70
2022/03/29 00:17:54;;;;;;;36.60;21.42;;;7.50;99.90;;;;;;5066618;28;20048;-70
2022/03/29 00:20:21;;;;;;;33.75;19.88;;;7.50;99.90;;;;;;5073936;28;20053;-69
2022/03/29 00:22:47;;;;;;;33.75;18.58;;;7.60;99.90;;;;;;5059086;28;20670;-70
2022/03/29 00:25:14;;;;;;;33.83;19.38;;;7.50;99.90;;;;;;5042893;28;20048;-69
2022/03/29 00:27:40;;;;;;;36.22;20.67;;;7.60;99.90;;;;;;5076078;28;20445;-70
2022/03/29 00:30:09;;;;;;;34.42;19.50;;;7.60;99.90;;;;;;5068277;28;20075;-70
2022/03/29 00:32:35;;;;;;;32.15;18.98;;;7.60;99.90;;;;;;5060096;28;20481;-69
2022/03/29 00:35:04;;;;;;;30.95;17.33;;;7.50;99.90;;;;;;5060059;28;20048;-70
2022/03/29 00:37:30;;;;;;;35.33;19.10;;;7.60;99.90;;;;;;5069245;28;20052;-70
2022/03/29 00:39:55;;;;;;;30.42;18.23;;;7.60;99.90;;;;;;5078313;28;20043;-70
2022/03/29 00:42:21;;;;;;;34.53;19.58;;;7.60;99.90;;;;;;5073009;28;20048;-70
2022/03/29 00:44:47;;;;;;;34.00;18.58;;;7.60;99.90;;;;;;5062000;28;20592;-70
2022/03/29 00:47:13;;;;;;;33.20;18.92;;;7.60;99.90;;;;;;5064829;28;20137;-70
2022/03/29 00:49:39;;;;;;;34.40;18.83;;;7.60;99.90;;;;;;5062599;28;20033;-70
2022/03/29 00:52:05;;;;;;;35.90;20.33;;;7.50;99.90;;;;;;5067696;28;20048;-70
2022/03/29 00:54:35;;;;;;;36.15;20.67;;;7.50;99.90;;;;;;5047925;28;20532;-70
2022/03/29 00:57:03;;;;;;;36.97;20.35;;;7.50;99.90;;;;;;5062164;28;20052;-69
2022/03/29 00:59:30;;;;;;;39.50;20.30;;;7.40;99.90;;;;;;5061743;28;20448;-70
2022/03/29 01:01:57;;;;;;;34.05;19.77;;;7.40;99.90;;;;;;5058850;28;20051;-70
2022/03/29 01:04:25;;;;;;;36.55;20.83;;;7.40;99.90;;;;;;5059934;28;20061;-69
2022/03/29 01:06:52;;;;;;;37.65;19.45;;;7.40;99.90;;;;;;5066399;28;20104;-69
2022/03/29 01:09:18;;;;;;;37.60;22.02;;;7.40;99.90;;;;;;5058697;28;20045;-69
2022/03/29 01:11:43;;;;;;;37.70;19.40;;;7.40;99.90;;;;;;5064627;28;20163;-70
2022/03/29 01:14:10;;;;;;;34.63;17.42;;;7.40;99.90;;;;;;5059676;28;20052;-70
2022/03/29 01:19:21;;;;;;;32.92;18.02;;;7.40;99.90;;;;;;5072537;28;20040;-69
2022/03/29 01:22:00;;;;;;;28.95;16.30;;;7.40;99.90;;;;;;5060711;28;20040;-70
2022/03/29 01:24:28;;;;;;;31.38;17.98;;;7.40;99.90;;;;;;5058787;28;20063;-70
2022/03/29 01:26:57;;;;;;;31.92;16.40;;;7.40;99.90;;;;;;5059230;28;20119;-69
2022/03/29 01:29:23;;;;;;;27.73;15.57;;;7.40;99.90;;;;;;5075352;28;20451;-70
2022/03/29 01:31:49;;;;;;;25.38;14.65;;;7.40;99.90;;;;;;5060377;28;20056;-69
2022/03/29 01:34:17;;;;;;;27.48;14.55;;;7.40;99.90;;;;;;5065578;28;20041;-69
2022/03/29 01:36:42;;;;;;;24.52;13.80;;;7.40;99.90;;;;;;5055678;28;20041;-69
2022/03/29 01:39:08;;;;;;;24.08;14.10;;;7.30;99.90;;;;;;5053351;28;20048;-69
2022/03/29 01:41:34;;;;;;;25.35;14.43;;;7.30;99.90;;;;;;5061660;28;20131;-70
2022/03/29 01:44:00;;;;;;;26.02;14.15;;;7.20;99.90;;;;;;5062904;28;20085;-69
2022/03/29 01:46:26;;;;;;;23.70;13.85;;;7.20;99.90;;;;;;5058332;28;20047;-69
2022/03/29 01:48:52;;;;;;;27.05;15.07;;;7.30;99.90;;;;;;5058235;28;20048;-69
2022/03/29 01:51:18;;;;;;;25.80;14.95;;;7.30;99.90;;;;;;5068297;28;20048;-69
2022/03/29 01:53:46;;;;;;;27.05;15.13;;;7.30;99.90;;;;;;5058481;28;20057;-69
2022/03/29 01:56:11;;;;;;;27.73;15.00;;;7.30;99.90;;;;;;5054043;28;20100;-70
2022/03/29 01:58:37;;;;;;;28.85;14.43;;;7.30;99.90;;;;;;5038851;28;20049;-70
2022/03/29 02:01:03;;;;;;;26.92;14.07;;;7.30;99.90;;;;;;5066269;28;20045;-70
2022/03/29 02:03:29;;;;;;;27.73;15.07;;;7.30;99.90;;;;;;5059240;28;20052;-69
2022/03/29 02:05:59;;;;;;;27.98;15.13;;;7.30;99.90;;;;;;5057794;28;20048;-70
2022/03/29 02:08:24;;;;;;;28.83;14.52;;;7.30;99.90;;;;;;5060920;28;20120;-70
2022/03/29 02:10:50;;;;;;;27.05;14.32;;;7.30;99.90;;;;;;5060332;28;20162;-69
2022/03/29 02:13:16;;;;;;;26.10;14.68;;;7.30;99.90;;;;;;5073563;28;20059;-69
2022/03/29 02:15:42;;;;;;;24.88;14.00;;;7.30;99.90;;;;;;5061856;28;20048;-70
2022/03/29 02:18:08;;;;;;;28.23;14.52;;;7.30;99.90;;;;;;5040387;28;20037;-69
2022/03/29 02:20:34;;;;;;;26.42;14.48;;;7.30;99.90;;;;;;5058017;28;20158;-70
2022/03/29 02:23:04;;;;;;;24.42;13.82;;;7.30;99.90;;;;;;5072814;28;20052;-69
2022/03/29 02:25:30;;;;;;;27.33;14.52;;;7.30;99.90;;;;;;5077296;28;20062;-70
2022/03/29 02:27:57;;;;;;;26.58;14.40;;;7.30;99.90;;;;;;5059663;28;20056;-69
2022/03/29 02:30:23;;;;;;;29.50;15.38;;;7.30;99.90;;;;;;5065687;28;20055;-70
2022/03/29 02:32:48;;;;;;;29.52;15.75;;;7.10;99.90;;;;;;5068680;28;20052;-70
2022/03/29 02:35:14;;;;;;;27.67;14.52;;;7.20;99.90;;;;;;5077288;28;20045;-70
2022/03/29 02:37:40;;;;;;;27.95;15.77;;;7.30;99.90;;;;;;5066967;28;20067;-70
2022/03/29 02:40:08;;;;;;;28.30;15.55;;;7.20;99.90;;;;;;5059762;28;20123;-69
2022/03/29 02:42:57;;;;;;;28.75;14.85;;;7.20;99.90;;;;;;5067091;28;20072;-69
2022/03/29 02:45:25;;;;;;;27.58;14.82;;;7.20;99.90;;;;;;5061952;28;20048;-69
2022/03/29 02:47:55;;;;;;;27.23;14.57;;;7.30;99.90;;;;;;5058477;28;20175;-69
2022/03/29 02:50:23;;;;;;;31.88;16.65;;;7.20;99.90;;;;;;5066632;28;20047;-69
2022/03/29 02:52:52;;;;;;;30.25;15.10;;;7.30;99.90;;;;;;5074945;28;20037;-69
2022/03/29 02:55:19;;;;;;;30.38;15.80;;;7.30;99.90;;;;;;5057557;28;20041;-69
2022/03/29 02:57:46;;;;;;;32.85;16.90;;;7.30;99.90;;;;;;5057723;28;20079;-69
2022/03/29 03:00:16;;;;;;;31.05;16.88;;;7.30;99.90;;;;;;5043533;28;20044;-69
2022/03/29 03:02:47;;;;;;;31.05;15.65;;;7.20;99.90;;;;;;5069480;28;20125;-69
2022/03/29 03:05:13;;;;;;;31.45;16.08;;;7.20;99.90;;;;;;5037389;28;20061;-69
2022/03/29 03:07:40;;;;;;;33.47;15.65;;;7.20;99.90;;;;;;5078789;28;20041;-70
2022/03/29 03:10:07;;;;;;;30.58;16.17;;;7.20;99.90;;;;;;5047999;28;20051;-69
2022/03/29 03:12:37;;;;;;;32.33;15.80;;;7.20;99.90;;;;;;5072317;28;20041;-70
2022/03/29 03:15:07;;;;;;;31.15;16.13;;;7.20;99.90;;;;;;5055832;28;20110;-70
2022/03/29 03:17:33;;;;;;;30.67;15.52;;;7.20;99.90;;;;;;5060164;28;20134;-69
2022/03/29 03:19:59;;;;;;;33.22;16.83;;;7.20;99.90;;;;;;5073410;28;20101;-69
2022/03/29 03:22:25;;;;;;;29.15;14.80;;;7.20;99.90;;;;;;5080379;28;20045;-69
2022/03/29 03:24:51;;;;;;;32.60;17.02;;;7.10;99.90;;;;;;5078310;28;20044;-69
2022/03/29 03:27:17;;;;;;;31.00;15.35;;;7.20;99.90;;;;;;5066977;28;20078;-69
2022/03/29 03:29:44;;;;;;;32.90;15.00;;;7.20;99.90;;;;;;5069026;28;20571;-69
2022/03/29 03:32:10;;;;;;;27.88;14.80;;;7.20;99.90;;;;;;5067968;28;20057;-69
2022/03/29 03:34:36;;;;;;;29.55;14.77;;;7.20;99.90;;;;;;5082769;28;20052;-70
2022/03/29 03:37:05;;;;;;;33.28;16.08;;;7.20;99.90;;;;;;5074898;28;20045;-69
2022/03/29 03:39:35;;;;;;;32.03;15.10;;;7.30;99.90;;;;;;5065062;28;20091;-71
2022/03/29 03:42:11;;;;;;;28.98;14.68;;;7.40;99.90;;;;;;5072486;28;20482;-70
2022/03/29 03:44:38;;;;;;;30.10;15.07;;;7.20;99.90;;;;;;5062610;28;20143;-70
2022/03/29 03:47:06;;;;;;;30.20;15.75;;;7.20;99.90;;;;;;5068029;28;20104;-69
2022/03/29 03:49:32;;;;;;;30.33;15.05;;;7.20;99.90;;;;;;5077413;28;20080;-70
2022/03/29 03:51:57;;;;;;;24.40;13.85;;;7.10;99.90;;;;;;5071742;28;20048;-69
2022/03/29 03:54:23;;;;;;;25.27;14.10;;;7.10;99.90;;;;;;5060911;28;20060;-69
2022/03/29 03:56:49;;;;;;;27.25;14.82;;;7.10;99.90;;;;;;5068201;28;20064;-69
2022/03/29 03:59:14;;;;;;;28.85;14.70;;;7.20;99.90;;;;;;5071950;28;20122;-70
2022/03/29 04:01:40;;;;;;;26.05;13.60;;;7.10;99.90;;;;;;5061521;28;20049;-69
2022/03/29 04:04:06;;;;;;;24.42;13.73;;;7.00;99.90;;;;;;5062428;28;20048;-69
2022/03/29 04:06:32;;;;;;;25.55;14.25;;;7.00;99.90;;;;;;5080500;28;20040;-69
2022/03/29 04:08:57;;;;;;;26.27;13.63;;;7.00;99.90;;;;;;5068282;28;20075;-69
2022/03/29 04:11:23;;;;;;;27.52;14.45;;;7.00;99.90;;;;;;5068031;28;20048;-69
2022/03/29 04:13:49;;;;;;;25.55;13.82;;;7.00;99.90;;;;;;5076417;28;20045;-69
2022/03/29 04:16:14;;;;;;;26.40;13.32;;;7.20;99.90;;;;;;5069730;28;20099;-69
2022/03/29 04:18:40;;;;;;;26.88;13.77;;;7.00;99.90;;;;;;5062778;28;20055;-71
2022/03/29 04:21:08;;;;;;;26.85;14.35;;;7.00;99.90;;;;;;5068098;28;20052;-70
2022/03/29 04:23:35;;;;;;;27.17;14.23;;;7.00;99.90;;;;;;5061476;28;20057;-69
2022/03/29 04:26:02;;;;;;;25.98;12.65;;;7.50;99.90;;;;;;5088016;28;20104;-70
2022/03/29 04:28:28;;;;;;;25.85;13.32;;;7.10;99.90;;;;;;5060740;28;20049;-69
2022/03/29 04:30:55;;;;;;;25.38;13.55;;;7.10;99.90;;;;;;5071369;28;20131;-69
2022/03/29 04:33:24;;;;;;;24.35;13.07;;;7.10;99.90;;;;;;5059915;28;20086;-69
2022/03/29 04:35:50;;;;;;;22.65;13.02;;;7.10;99.90;;;;;;5065561;28;20038;-69
2022/03/29 04:38:16;;;;;;;24.13;12.40;;;7.10;99.90;;;;;;5062098;28;20060;-69
2022/03/29 04:40:42;;;;;;;23.88;12.80;;;7.10;99.90;;;;;;5059200;28;20041;-72
2022/03/29 04:43:07;;;;;;;22.92;12.60;;;7.10;99.90;;;;;;5064661;28;20041;-72
2022/03/29 04:45:33;;;;;;;25.65;13.77;;;7.20;99.90;;;;;;5068987;28;20055;-70
2022/03/29 04:47:59;;;;;;;24.48;12.95;;;7.20;99.90;;;;;;5078032;28;20071;-70
2022/03/29 04:50:25;;;;;;;24.73;12.60;;;7.20;99.90;;;;;;5065008;28;20052;-70
2022/03/29 04:52:51;;;;;;;24.50;12.27;;;7.20;99.90;;;;;;5073105;28;20044;-70
2022/03/29 04:55:18;;;;;;;23.85;13.07;;;7.20;99.90;;;;;;5051741;28;20068;-70
2022/03/29 04:57:47;;;;;;;23.42;12.55;;;7.20;99.90;;;;;;5072347;28;20389;-69
2022/03/29 05:00:16;;;;;;;22.42;11.98;;;7.20;99.90;;;;;;5057961;28;20044;-70
2022/03/29 05:02:43;;;;;;;22.05;11.63;;;7.20;99.90;;;;;;5059341;28;20406;-69
2022/03/29 05:05:10;;;;;;;22.05;12.13;;;7.20;99.90;;;;;;5074853;28;20083;-69
2022/03/29 05:07:37;;;;;;;23.67;12.50;;;7.20;99.90;;;;;;5059005;28;20037;-69
2022/03/29 05:10:04;;;;;;;24.88;12.82;;;7.20;99.90;;;;;;5057996;28;20075;-69
2022/03/29 05:12:30;;;;;;;21.25;12.73;;;7.30;99.90;;;;;;5065762;28;20044;-70
2022/03/29 05:14:59;;;;;;;21.42;13.05;;;7.20;99.90;;;;;;5076419;28;20137;-69
2022/03/29 05:17:24;;;;;;;22.08;12.63;;;7.20;99.90;;;;;;5077805;28;20041;-70
2022/03/29 05:19:50;;;;;;;23.80;12.65;;;7.20;99.90;;;;;;5079129;28;20060;-69
2022/03/29 05:22:16;;;;;;;24.08;12.00;;;7.20;99.90;;;;;;5078153;28;20769;-69
2022/03/29 05:24:41;;;;;;;22.02;12.40;;;7.20;99.90;;;;;;5076720;28;20044;-69
2022/03/29 05:27:07;;;;;;;22.45;11.70;;;7.30;99.90;;;;;;5069940;28;20060;-70
2022/03/29 05:29:33;;;;;;;20.85;12.32;;;7.30;99.90;;;;;;5067112;28;20041;-70
2022/03/29 05:31:59;;;;;;;21.90;12.18;;;7.30;99.90;;;;;;5058809;28;20052;-70
2022/03/29 05:34:24;;;;;;;22.70;12.27;;;7.30;99.90;;;;;;5074350;28;20041;-72
2022/03/29 05:36:50;;;;;;;22.75;12.60;;;7.30;99.90;;;;;;5058723;28;20056;-72
2022/03/29 05:39:16;;;;;;;24.23;12.02;;;7.30;99.90;;;;;;5057554;28;20045;-72
2022/03/29 05:41:43;;;;;;;22.15;11.85;;;7.20;99.90;;;;;;5062298;28;20535;-72
2022/03/29 05:44:09;;;;;;;23.83;12.98;;;7.20;99.90;;;;;;5057552;28;20064;-72
2022/03/29 05:49:22;;;;;;;24.15;12.77;;;7.10;99.90;;;;;;5072396;28;20045;-69
2022/03/29 05:51:49;;;;;;;27.70;14.05;;;7.10;99.90;;;;;;5077422;28;20048;-69
2022/03/29 05:54:16;;;;;;;24.83;13.07;;;7.10;99.90;;;;;;5076440;28;20539;-70
2022/03/29 05:56:42;;;;;;;23.55;12.75;;;7.10;99.90;;;;;;5071705;28;20082;-69
2022/03/29 05:59:08;;;;;;;23.25;12.48;;;7.10;99.90;;;;;;5066409;28;20067;-69
2022/03/29 06:01:34;;;;;;;23.60;13.90;;;7.10;99.90;;;;;;5057245;28;20359;-69
2022/03/29 06:04:06;;;;;;;28.25;12.82;;;7.10;99.90;;;;;;5078580;28;20060;-70
2022/03/29 06:06:34;;;;;;;21.52;12.45;;;7.10;99.90;;;;;;5080126;28;20506;-70
2022/03/29 06:09:00;;;;;;;24.38;12.90;;;7.10;99.90;;;;;;5077617;28;20083;-69
2022/03/29 06:11:26;;;;;;;23.80;12.55;;;7.10;99.90;;;;;;5077891;28;20045;-70
2022/03/29 06:13:51;;;;;;;25.25;13.27;;;7.10;99.90;;;;;;5057583;28;20068;-69
2022/03/29 06:16:17;;;;;;;26.08;13.90;;;7.20;99.90;;;;;;5069155;28;20070;-70
2022/03/29 06:18:43;;;;;;;24.42;12.93;;;7.30;99.90;;;;;;5067511;28;20041;-69
2022/03/29 06:21:09;;;;;;;27.15;13.07;;;7.20;99.90;;;;;;5068505;28;20052;-70
2022/03/29 06:23:35;;;;;;;24.80;13.45;;;7.20;99.90;;;;;;5059654;28;20045;-69
2022/03/29 06:26:01;;;;;;;24.77;13.68;;;7.30;99.90;;;;;;5062502;28;20060;-69
2022/03/29 06:28:27;;;;;;;24.92;13.90;;;7.30;99.90;;;;;;5078074;28;20079;-69
2022/03/29 06:30:52;;;;;;;28.58;14.20;;;7.40;99.90;;;;;;5068285;28;20044;-69
2022/03/29 06:33:20;;;;;;;30.35;15.23;;;7.40;99.90;;;;;;5057589;28;20053;-69
2022/03/29 06:35:46;;;;;;;33.55;15.65;;;7.40;99.90;;;;;;5057507;28;20044;-69
2022/03/29 06:38:11;;;;;;;38.35;17.48;;;7.40;99.90;;;;;;5057173;28;20048;-69
2022/03/29 06:40:37;;;;;;;31.80;15.82;;;7.50;99.90;;;;;;5059303;28;20105;-69
2022/03/29 06:43:03;;;;;;;32.45;16.90;;;7.50;99.90;;;;;;5060579;28;20052;-69
2022/03/29 06:45:29;;;;;;;29.45;16.45;;;7.50;99.90;;;;;;5061928;28;20106;-69
2022/03/29 06:47:55;;;;;;;29.77;16.48;;;7.50;99.90;;;;;;5060953;28;20052;-69
2022/03/29 06:50:21;;;;;;;32.33;17.58;;;7.60;99.90;;;;;;5061765;28;20045;-70
2022/03/29 06:52:47;;;;;;;33.17;16.70;;;7.60;99.90;;;;;;5061291;28;20102;-69
2022/03/29 06:55:15;;;;;;;31.17;17.10;;;7.60;99.90;;;;;;5039924;28;20041;-70
2022/03/29 06:57:41;;;;;;;32.97;17.40;;;7.70;99.90;;;;;;5058138;28;20107;-70
2022/03/29 07:00:12;;;;;;;34.17;17.45;;;7.70;99.90;;;;;;5059906;28;20049;-70
2022/03/29 07:02:38;;;;;;;36.55;17.58;;;7.70;99.90;;;;;;5061549;28;20113;-70
2022/03/29 07:05:06;;;;;;;38.45;18.95;;;7.70;99.90;;;;;;5059806;28;20045;-70
2022/03/29 07:07:32;;;;;;;34.40;17.38;;;7.70;99.90;;;;;;5057123;28;20121;-71
2022/03/29 07:12:59;;;;;;;33.65;17.17;;;7.80;99.90;;;;;;5047833;28;20045;-71
2022/03/29 07:15:25;;;;;;;31.38;18.17;;;7.80;99.90;;;;;;5061920;28;20040;-71
2022/03/29 07:17:52;;;;;;;30.52;16.88;;;7.80;99.90;;;;;;5055908;28;20046;-71
2022/03/29 07:20:21;;;;;;;37.60;18.83;;;7.80;99.90;;;;;;5062358;28;20057;-71
2022/03/29 07:22:49;;;;;;;33.63;18.27;;;7.90;99.90;;;;;;5047517;28;20041;-71
2022/03/29 07:25:18;;;;;;;34.85;18.00;;;7.90;99.90;;;;;;5039777;28;20711;-71
2022/03/29 07:27:44;;;;;;;36.63;18.52;;;7.90;99.90;;;;;;5054357;28;20485;-71
2022/03/29 07:30:11;;;;;;;30.83;16.40;;;7.90;99.90;;;;;;5054114;28;20033;-71
2022/03/29 07:32:52;;;;;;;35.65;17.60;;;7.90;99.90;;;;;;5060669;28;20068;-71
2022/03/29 07:35:19;;;;;;;31.85;16.92;;;7.90;99.90;;;;;;5060138;28;20076;-71
2022/03/29 07:37:46;;;;;;;31.35;18.38;;;7.90;99.90;;;;;;5060675;28;20111;-71
2022/03/29 07:40:14;;;;;;;35.45;18.52;;;8.00;99.90;;;;;;5061129;28;20058;-71
2022/03/29 07:42:40;;;;;;;36.13;19.58;;;8.10;99.90;;;;;;5043507;28;20564;-71
2022/03/29 07:45:07;;;;;;;33.35;17.75;;;8.20;99.90;;;;;;5060779;28;20056;-71
2022/03/29 07:47:36;;;;;;;33.78;18.35;;;8.30;99.90;;;;;;5059136;28;20048;-71
2022/03/29 07:50:06;;;;;;;33.70;17.30;;;8.40;99.90;;;;;;5060488;28;20128;-71
2022/03/29 07:52:35;;;;;;;34.30;17.95;;;8.50;99.90;;;;;;5043219;28;20041;-71
2022/03/29 07:55:03;;;;;;;36.38;18.38;;;8.50;99.90;;;;;;5059707;28;20041;-71
2022/03/29 07:57:28;;;;;;;35.50;17.58;;;8.60;99.90;;;;;;5060337;28;20051;-71
2022/03/29 07:59:54;;;;;;;35.80;18.77;;;8.70;99.90;;;;;;5059449;28;20077;-71
2022/03/29 08:02:20;;;;;;;37.90;18.13;;;8.70;99.90;;;;;;5060913;28;20235;-71
2022/03/29 08:04:46;;;;;;;33.10;17.77;;;8.70;99.90;;;;;;5058432;28;20060;-71
2022/03/29 08:07:12;;;;;;;32.35;18.27;;;8.70;99.90;;;;;;5059416;28;20052;-71
2022/03/29 08:09:38;;;;;;;35.50;18.25;;;8.70;99.90;;;;;;5059020;28;20053;-71
2022/03/29 08:12:04;;;;;;;32.10;17.70;;;8.80;99.90;;;;;;5058852;28;20044;-71
2022/03/29 08:14:30;;;;;;;30.55;15.38;;;8.80;99.90;;;;;;5059934;28;20049;-71
2022/03/29 08:16:56;;;;;;;37.30;17.85;;;8.90;99.90;;;;;;5058548;28;20136;-71
2022/03/29 08:19:22;;;;;;;30.77;17.13;;;9.00;99.90;;;;;;5060332;28;20053;-71
2022/03/29 08:21:52;;;;;;;33.72;17.88;;;9.10;99.90;;;;;;5058822;28;20508;-71
2022/03/29 08:24:18;;;;;;;35.50;16.73;;;9.10;99.90;;;;;;5059665;28;20057;-71
2022/03/29 08:26:46;;;;;;;31.45;16.25;;;9.20;99.90;;;;;;5078455;28;20052;-71
2022/03/29 08:29:12;;;;;;;31.65;16.58;;;9.30;99.90;;;;;;5075747;28;20455;-71
2022/03/29 08:31:40;;;;;;;36.53;16.25;;;9.00;99.90;;;;;;5048282;28;20041;-71
2022/03/29 08:34:06;;;;;;;33.85;16.60;;;9.30;99.90;;;;;;5041952;28;20049;-72
2022/03/29 08:36:32;;;;;;;32.22;16.42;;;9.30;99.90;;;;;;5059093;28;20055;-71
2022/03/29 08:38:58;;;;;;;35.22;17.20;;;9.40;99.90;;;;;;5041512;28;20044;-71
2022/03/29 08:41:27;;;;;;;32.10;15.95;;;9.30;99.90;;;;;;5060327;28;20444;-71
2022/03/29 08:43:53;;;;;;;30.88;17.25;;;9.30;99.90;;;;;;5057657;28;20083;-71
2022/03/29 08:46:19;;;;;;;33.67;16.42;;;9.30;99.90;;;;;;5059044;28;20049;-71
2022/03/29 08:48:50;;;;;;;31.33;15.68;;;9.40;99.90;;;;;;5058837;28;20055;-71
2022/03/29 08:51:16;;;;;;;32.70;16.48;;;9.50;99.90;;;;;;5041386;28;20569;-71
2022/03/29 08:53:45;;;;;;;31.27;16.17;;;9.60;99.90;;;;;;5059466;28;20099;-71
2022/03/29 08:56:11;;;;;;;29.77;15.98;;;9.60;99.90;;;;;;5057903;28;20053;-71
2022/03/29 08:58:36;;;;;;;32.47;16.55;;;9.60;99.90;;;;;;5058093;28;20100;-71
2022/03/29 09:01:02;;;;;;;30.80;16.00;;;9.60;99.90;;;;;;5057021;28;20105;-71
2022/03/29 09:03:28;;;;;;;33.30;15.68;;;9.60;99.90;;;;;;5039831;28;20061;-71
2022/03/29 09:06:08;;;;;;;33.33;16.08;;;9.60;99.90;;;;;;5057557;28;20045;-71
2022/03/29 09:08:46;;;;;;;32.00;16.23;;;9.60;99.90;;;;;;5038849;28;20075;-71
2022/03/29 09:11:13;;;;;;;31.70;16.48;;;9.60;99.90;;;;;;5088544;28;20045;-71
2022/03/29 09:13:40;;;;;;;34.88;18.65;;;9.60;99.90;;;;;;5050944;28;20034;-71
2022/03/29 09:16:10;;;;;;;34.13;16.27;;;9.70;99.90;;;;;;5057230;28;20538;-71
2022/03/29 09:18:37;;;;;;;27.65;15.13;;;9.80;99.90;;;;;;5050387;28;20043;-71
2022/03/29 09:21:11;;;;;;;31.88;16.73;;;9.80;99.90;;;;;;5053510;28;20128;-71
2022/03/29 09:23:37;;;;;;;28.83;15.57;;;9.80;99.90;;;;;;5049222;28;20045;-71
2022/03/29 09:26:04;;;;;;;25.95;15.05;;;9.80;99.90;;;;;;5057028;28;20163;-71
2022/03/29 09:28:38;;;;;;;35.13;17.35;;;9.90;99.90;;;;;;5058364;28;20052;-71
2022/03/29 09:31:18;;;;;;;31.88;15.95;;;10.00;99.90;;;;;;5058100;28;20082;-71
2022/03/29 09:33:44;;;;;;;29.55;16.00;;;10.20;99.90;;;;;;5057906;28;20127;-71
2022/03/29 09:36:13;;;;;;;26.27;15.20;;;10.30;99.90;;;;;;5058204;28;20084;-71
2022/03/29 09:38:41;;;;;;;31.63;15.88;;;10.50;99.90;;;;;;5040875;28;20049;-71
2022/03/29 09:41:28;;;;;;;33.38;16.10;;;10.60;99.90;;;;;;5058081;28;20087;-71
2022/03/29 09:44:11;;;;;;;32.47;15.50;;;10.70;99.90;;;;;;5056888;28;20052;-71
2022/03/29 09:46:59;;;;;;;32.13;16.23;;;10.60;99.90;;;;;;5041178;28;20086;-71
2022/03/29 09:49:26;;;;;;;30.48;14.70;;;10.50;99.90;;;;;;5058410;28;20053;-71
2022/03/29 09:52:15;;;;;;;30.02;16.05;;;10.50;99.90;;;;;;5056925;28;20409;-71
2022/03/29 09:54:42;;;;;;;26.58;15.25;;;10.60;99.90;;;;;;5059450;28;20044;-71
2022/03/29 09:57:09;;;;;;;28.23;15.90;;;10.60;99.90;;;;;;5057498;28;20071;-71
2022/03/29 09:59:48;;;;;;;32.05;15.75;;;10.60;99.90;;;;;;5057023;28;20052;-71
2022/03/29 10:02:13;;;;;;;28.55;15.82;;;10.60;99.90;;;;;;5058097;28;20128;-72
2022/03/29 10:04:41;;;;;;;29.33;15.95;;;10.70;99.90;;;;;;5056671;28;20076;-71
2022/03/29 10:07:09;;;;;;;31.95;16.58;;;10.70;99.90;;;;;;5057808;28;20480;-71
2022/03/29 10:09:38;;;;;;;32.47;15.93;;;10.80;99.90;;;;;;5040316;28;20453;-71
2022/03/29 10:12:09;;;;;;;30.13;15.30;;;10.80;99.90;;;;;;5057199;28;20056;-71
2022/03/29 10:14:43;;;;;;;30.92;14.95;;;10.70;99.90;;;;;;5073928;28;20469;-71
2022/03/29 10:17:09;;;;;;;28.73;16.08;;;10.60;99.90;;;;;;5056698;28;20044;-71
2022/03/29 10:19:37;;;;;;;29.42;14.73;;;10.60;99.90;;;;;;5057956;28;20045;-71
2022/03/29 10:22:04;;;;;;;24.25;13.80;;;10.70;99.90;;;;;;5056412;28;20040;-71
2022/03/29 10:24:30;;;;;;;28.70;15.50;;;10.90;99.90;;;;;;5040830;28;20466;-71
2022/03/29 10:26:59;;;;;;;24.08;13.43;;;11.10;99.90;;;;;;5040564;28;20128;-71
2022/03/29 10:29:25;;;;;;;23.90;13.50;;;11.30;99.90;;;;;;5058349;28;20448;-71
2022/03/29 10:32:07;;;;;;;24.52;13.88;;;11.30;99.90;;;;;;5057514;28;20065;-71
2022/03/29 10:34:42;;;;;;;25.30;13.88;;;11.30;99.90;;;;;;5056779;28;20128;-71
2022/03/29 10:37:09;;;;;;;26.27;13.85;;;11.20;99.90;;;;;;5059089;28;20378;-71
2022/03/29 10:39:39;;;;;;;27.13;14.20;;;11.20;99.90;;;;;;5040141;28;20049;-71
2022/03/29 10:42:24;;;;;;;23.77;14.30;;;11.20;99.90;;;;;;5056665;28;20040;-72
2022/03/29 10:45:11;;;;;;;25.73;14.02;;;11.10;99.90;;;;;;5059095;28;20049;-71
2022/03/29 10:47:37;;;;;;;24.23;13.90;;;11.10;99.90;;;;;;5039582;28;20087;-71
2022/03/29 10:50:06;;;;;;;27.27;14.32;;;11.20;99.90;;;;;;5057202;28;20048;-72
2022/03/29 10:52:52;;;;;;;27.27;13.55;;;11.20;99.90;;;;;;5056591;28;20051;-71
2022/03/29 10:55:28;;;;;;;24.97;14.23;;;11.30;99.90;;;;;;5056054;28;20152;-71
2022/03/29 10:58:14;;;;;;;22.95;14.02;;;11.30;99.90;;;;;;5057736;28;20383;-71
2022/03/29 11:00:44;;;;;;;23.95;13.27;;;11.20;99.90;;;;;;5056498;28;20044;-71
2022/03/29 11:03:14;;;;;;;24.20;14.20;;;11.20;99.90;;;;;;5057303;28;20049;-71
2022/03/29 11:06:10;;;;;;;24.08;12.80;;;11.20;99.90;;;;;;5057992;28;20049;-71
2022/03/29 11:09:02;;;;;;;23.13;12.98;;;11.20;99.90;;;;;;5056664;28;20443;-71
2022/03/29 11:11:39;;;;;;;27.55;13.82;;;11.30;99.90;;;;;;5084797;28;20416;-71
2022/03/29 11:14:47;;;;;;;24.58;13.10;;;11.30;99.90;;;;;;5056210;28;20057;-71
2022/03/29 11:17:13;;;;;;;22.60;12.27;;;11.40;99.90;;;;;;5089691;28;20075;-71
2022/03/29 11:19:48;;;;;;;24.58;13.77;;;11.50;99.90;;;;;;5055869;28;20045;-71
2022/03/29 11:22:25;;;;;;;23.52;13.85;;;11.60;99.90;;;;;;5056401;28;20049;-71
2022/03/29 11:24:53;;;;;;;24.02;13.63;;;11.70;99.90;;;;;;5056719;28;20041;-71
2022/03/29 11:27:23;;;;;;;20.38;13.55;;;11.90;99.90;;;;;;5057777;28;20260;-71
2022/03/29 11:29:49;;;;;;;26.73;14.18;;;12.00;99.90;;;;;;5076516;28;20040;-71
2022/03/29 11:32:17;;;;;;;20.73;12.95;;;11.90;99.90;;;;;;5060873;28;20609;-71
2022/03/29 11:34:44;;;;;;;26.88;14.00;;;11.90;99.90;;;;;;5059352;28;20052;-72
2022/03/29 11:37:31;;;;;;;23.50;14.27;;;11.90;99.90;;;;;;5061714;28;20095;-71
2022/03/29 11:40:00;;;;;;;22.50;12.18;;;12.00;99.90;;;;;;5053541;28;20549;-71
2022/03/29 11:42:49;;;;;;;26.08;13.65;;;12.20;99.90;;;;;;5092950;28;20041;-71
2022/03/29 11:45:23;;;;;;;24.27;12.68;;;12.40;99.90;;;;;;5057251;28;20107;-71
2022/03/29 11:47:55;;;;;;;25.10;13.23;;;12.80;99.90;;;;;;5039749;28;20041;-71
2022/03/29 11:50:33;;;;;;;21.73;12.43;;;12.90;99.90;;;;;;5056689;28;20136;-71
2022/03/29 11:52:59;;;;;;;21.20;11.85;;;13.00;99.90;;;;;;5056943;28;20150;-71
2022/03/29 11:55:25;;;;;;;19.40;11.05;;;12.90;99.90;;;;;;5040782;28;20152;-71
2022/03/29 11:57:56;;;;;;;24.25;12.82;;;12.70;99.90;;;;;;5039641;28;20081;-71
2022/03/29 12:00:28;;;;;;;21.33;11.43;;;12.60;99.90;;;;;;5039368;28;20045;-71
2022/03/29 12:02:54;;;;;;;23.75;13.82;;;12.80;99.90;;;;;;5056784;28;20504;-72
2022/03/29 12:05:27;;;;;;;21.88;11.82;;;13.10;99.90;;;;;;5038480;28;20060;-71
2022/03/29 12:08:02;;;;;;;25.17;13.10;;;13.60;99.90;;;;;;5057430;28;20041;-72
2022/03/29 12:10:33;;;;;;;20.05;12.00;;;13.90;99.90;;;;;;5060391;28;20053;-71
2022/03/29 12:12:59;;;;;;;21.90;12.20;;;13.80;99.90;;;;;;5058627;28;20055;-72
2022/03/29 12:15:24;;;;;;;19.55;11.35;;;13.60;99.90;;;;;;5059620;28;20037;-71
2022/03/29 12:17:51;;;;;;;18.27;10.73;;;13.40;99.90;;;;;;5058394;28;20095;-71
2022/03/29 12:20:32;;;;;;;21.23;11.88;;;13.40;99.90;;;;;;5042933;28;20037;-71
2022/03/29 12:22:58;;;;;;;20.70;11.18;;;13.60;99.90;;;;;;5064573;28;20070;-71
2022/03/29 12:25:24;;;;;;;23.15;11.15;;;13.80;99.90;;;;;;5079886;28;20044;-71
2022/03/29 12:27:50;;;;;;;18.90;10.93;;;14.00;99.90;;;;;;5079326;28;20048;-71
2022/03/29 12:30:16;;;;;;;20.42;11.77;;;14.20;99.90;;;;;;5069895;28;20397;-71
2022/03/29 12:32:45;;;;;;;19.10;11.45;;;14.40;99.90;;;;;;5059828;28;20037;-72
2022/03/29 12:35:17;;;;;;;17.85;10.85;;;14.40;99.90;;;;;;5058781;28;20056;-71
2022/03/29 12:37:47;;;;;;;20.40;10.48;;;14.30;99.90;;;;;;5059801;28;20045;-71
2022/03/29 12:40:14;;;;;;;20.58;10.75;;;14.20;99.90;;;;;;5058702;28;20111;-71
2022/03/29 12:42:40;;;;;;;22.42;10.07;;;14.60;99.90;;;;;;5059777;28;20049;-71
2022/03/29 12:45:08;;;;;;;20.10;10.82;;;14.90;99.90;;;;;;5059055;28;20464;-72
2022/03/29 12:47:34;;;;;;;18.38;9.77;;;14.80;99.90;;;;;;5041696;28;20045;-72